sensor_id;sensor_type;location;lat;lon;timestamp;pressure;altitude;pressure_sealevel;temperature;humidity
76694;BME280;69667;52.136;5.424;2023-05-07T00:01:19;101699.81;;;14.62;90.50
76694;BME280;69667;52.136;5.424;2023-05-07T00:03:45;101700.78;;;14.61;90.33
76694;BME280;69667;52.136;5.424;2023-05-07T00:06:14;101703.50;;;14.61;90.62
76694;BME280;69667;52.136;5.424;2023-05-07T00:08:40;101711.16;;;14.56;91.04
76694;BME280;69667;52.136;5.424;2023-05-07T00:11:07;101705.47;;;14.48;91.08
76694;BME280;69667;52.136;5.424;2023-05-07T00:13:36;101701.16;;;14.45;91.16
76694;BME280;69667;52.136;5.424;2023-05-07T00:16:03;101708.28;;;14.46;91.45
76694;BME280;69667;52.136;5.424;2023-05-07T00:18:30;101700.50;;;14.42;91.14
76694;BME280;69667;52.136;5.424;2023-05-07T00:20:56;101705.19;;;14.40;91.64
76694;BME280;69667;52.136;5.424;2023-05-07T00:23:23;101699.88;;;14.38;91.81
76694;BME280;69667;52.136;5.424;2023-05-07T00:25:49;101702.84;;;14.35;91.69
76694;BME280;69667;52.136;5.424;2023-05-07T00:28:16;101703.81;;;14.34;91.56
76694;BME280;69667;52.136;5.424;2023-05-07T00:30:42;101708.59;;;14.31;91.86
76694;BME280;69667;52.136;5.424;2023-05-07T00:33:09;101698.19;;;14.25;91.53
76694;BME280;69667;52.136;5.424;2023-05-07T00:35:35;101696.69;;;14.21;92.06
76694;BME280;69667;52.136;5.424;2023-05-07T00:38:02;101697.56;;;14.21;91.94
76694;BME280;69667;52.136;5.424;2023-05-07T00:40:29;101696.91;;;14.18;92.06
76694;BME280;69667;52.136;5.424;2023-05-07T00:42:55;101693.22;;;14.19;91.85
76694;BME280;69667;52.136;5.424;2023-05-07T00:45:27;101689.53;;;14.20;91.73
76694;BME280;69667;52.136;5.424;2023-05-07T00:48:00;101687.06;;;14.17;91.50
76694;BME280;69667;52.136;5.424;2023-05-07T00:50:27;101683.34;;;14.18;91.67
76694;BME280;69667;52.136;5.424;2023-05-07T00:52:55;101683.47;;;14.16;91.67
76694;BME280;69667;52.136;5.424;2023-05-07T00:55:23;101681.63;;;14.17;91.84
76694;BME280;69667;52.136;5.424;2023-05-07T00:57:51;101678.78;;;14.18;91.98
76694;BME280;69667;52.136;5.424;2023-05-07T01:00:17;101686.06;;;14.18;91.91
76694;BME280;69667;52.136;5.424;2023-05-07T01:02:44;101678.66;;;14.20;92.06
76694;BME280;69667;52.136;5.424;2023-05-07T01:05:14;101683.09;;;14.21;91.76
76694;BME280;69667;52.136;5.424;2023-05-07T01:07:43;101674.84;;;14.22;92.05
76694;BME280;69667;52.136;5.424;2023-05-07T01:10:10;101673.88;;;14.23;92.08
76694;BME280;69667;52.136;5.424;2023-05-07T01:12:39;101676.59;;;14.23;92.39
76694;BME280;69667;52.136;5.424;2023-05-07T01:15:08;101675.59;;;14.24;92.08
76694;BME280;69667;52.136;5.424;2023-05-07T01:17:36;101679.31;;;14.23;92.33
76694;BME280;69667;52.136;5.424;2023-05-07T01:20:09;101670.41;;;14.21;92.14
76694;BME280;69667;52.136;5.424;2023-05-07T01:22:43;101678.66;;;14.20;91.98
76694;BME280;69667;52.136;5.424;2023-05-07T01:25:09;101679.53;;;14.20;92.19
76694;BME280;69667;52.136;5.424;2023-05-07T01:27:40;101678.56;;;14.21;92.32
76694;BME280;69667;52.136;5.424;2023-05-07T01:30:07;101672.25;;;14.21;92.61
76694;BME280;69667;52.136;5.424;2023-05-07T01:32:43;101669.53;;;14.21;92.53
76694;BME280;69667;52.136;5.424;2023-05-07T01:35:18;101678.91;;;14.17;92.49
76694;BME280;69667;52.136;5.424;2023-05-07T01:37:46;101678.03;;;14.16;92.59
76694;BME280;69667;52.136;5.424;2023-05-07T01:40:13;101677.91;;;14.18;92.67
76694;BME280;69667;52.136;5.424;2023-05-07T01:42:42;101676.06;;;14.18;92.76
76694;BME280;69667;52.136;5.424;2023-05-07T01:45:09;101679.63;;;14.19;92.77
76694;BME280;69667;52.136;5.424;2023-05-07T01:47:37;101678.78;;;14.18;92.87
76694;BME280;69667;52.136;5.424;2023-05-07T01:50:05;101686.94;;;14.18;92.84
76694;BME280;69667;52.136;5.424;2023-05-07T01:52:32;101681.50;;;14.18;92.45
76694;BME280;69667;52.136;5.424;2023-05-07T01:54:58;101679.88;;;14.16;92.95
76694;BME280;69667;52.136;5.424;2023-05-07T01:57:25;101684.34;;;14.17;92.93
76694;BME280;69667;52.136;5.424;2023-05-07T01:59:52;101671.50;;;14.19;93.01
76694;BME280;69667;52.136;5.424;2023-05-07T02:02:18;101674.19;;;14.19;93.16
76694;BME280;69667;52.136;5.424;2023-05-07T02:04:45;101669.66;;;14.19;93.01
76694;BME280;69667;52.136;5.424;2023-05-07T02:07:13;101675.84;;;14.21;92.80
76694;BME280;69667;52.136;5.424;2023-05-07T02:09:39;101669.41;;;14.22;92.98
76694;BME280;69667;52.136;5.424;2023-05-07T02:12:06;101675.59;;;14.24;93.36
76694;BME280;69667;52.136;5.424;2023-05-07T02:14:33;101687.34;;;14.25;93.14
76694;BME280;69667;52.136;5.424;2023-05-07T02:16:59;101685.53;;;14.25;93.09
76694;BME280;69667;52.136;5.424;2023-05-07T02:19:26;101683.66;;;14.26;93.32
76694;BME280;69667;52.136;5.424;2023-05-07T02:21:53;101680.16;;;14.24;93.21
76694;BME280;69667;52.136;5.424;2023-05-07T02:24:20;101675.84;;;14.21;93.49
76694;BME280;69667;52.136;5.424;2023-05-07T02:26:48;101678.66;;;14.20;93.42
76694;BME280;69667;52.136;5.424;2023-05-07T02:29:15;101678.66;;;14.20;93.32
76694;BME280;69667;52.136;5.424;2023-05-07T02:31:42;101681.38;;;14.20;93.50
76694;BME280;69667;52.136;5.424;2023-05-07T02:34:09;101677.56;;;14.22;93.46
76694;BME280;69667;52.136;5.424;2023-05-07T02:36:36;101683.84;;;14.23;93.44
76694;BME280;69667;52.136;5.424;2023-05-07T02:39:07;101674.84;;;14.22;93.35
76694;BME280;69667;52.136;5.424;2023-05-07T02:41:34;101682.13;;;14.22;93.19
76694;BME280;69667;52.136;5.424;2023-05-07T02:44:00;101678.44;;;14.23;93.54
76694;BME280;69667;52.136;5.424;2023-05-07T02:46:27;101678.44;;;14.23;93.64
76694;BME280;69667;52.136;5.424;2023-05-07T02:49:00;101682.03;;;14.23;93.68
76694;BME280;69667;52.136;5.424;2023-05-07T02:51:26;101680.94;;;14.26;93.88
76694;BME280;69667;52.136;5.424;2023-05-07T02:53:56;101671.03;;;14.25;93.36
76694;BME280;69667;52.136;5.424;2023-05-07T02:56:22;101680.16;;;14.24;93.14
76694;BME280;69667;52.136;5.424;2023-05-07T02:58:49;101669.22;;;14.25;93.03
76694;BME280;69667;52.136;5.424;2023-05-07T03:01:16;101664.72;;;14.24;93.11
76694;BME280;69667;52.136;5.424;2023-05-07T03:03:53;101665.72;;;14.23;93.06
76694;BME280;69667;52.136;5.424;2023-05-07T03:06:21;101676.72;;;14.22;93.06
76694;BME280;69667;52.136;5.424;2023-05-07T03:08:47;101675.72;;;14.23;93.66
76694;BME280;69667;52.136;5.424;2023-05-07T03:11:14;101679.53;;;14.20;93.76
76694;BME280;69667;52.136;5.424;2023-05-07T03:13:41;101675.94;;;14.20;93.76
76694;BME280;69667;52.136;5.424;2023-05-07T03:16:07;101677.91;;;14.18;93.96
76694;BME280;69667;52.136;5.424;2023-05-07T03:18:34;101669.00;;;14.16;93.86
76694;BME280;69667;52.136;5.424;2023-05-07T03:21:01;101671.97;;;14.13;93.86
76694;BME280;69667;52.136;5.424;2023-05-07T03:23:27;101672.97;;;14.12;94.00
76694;BME280;69667;52.136;5.424;2023-05-07T03:25:54;101660.47;;;14.09;94.06
76694;BME280;69667;52.136;5.424;2023-05-07T03:28:23;101669.63;;;14.08;93.75
76694;BME280;69667;52.136;5.424;2023-05-07T03:30:54;101672.44;;;14.07;93.48
76694;BME280;69667;52.136;5.424;2023-05-07T03:33:21;101667.03;;;14.07;93.67
76694;BME280;69667;52.136;5.424;2023-05-07T03:35:48;101667.25;;;14.04;93.67
76694;BME280;69667;52.136;5.424;2023-05-07T03:38:20;101670.81;;;14.04;94.09
76694;BME280;69667;52.136;5.424;2023-05-07T03:40:46;101675.50;;;14.02;93.90
76694;BME280;69667;52.136;5.424;2023-05-07T03:43:12;101671.19;;;13.99;93.93
76694;BME280;69667;52.136;5.424;2023-05-07T03:45:43;101666.00;;;13.96;94.13
76694;BME280;69667;52.136;5.424;2023-05-07T03:48:14;101674.47;;;13.92;94.28
76694;BME280;69667;52.136;5.424;2023-05-07T03:50:41;101679.88;;;13.92;94.48
76694;BME280;69667;52.136;5.424;2023-05-07T03:53:09;101673.38;;;13.94;93.88
76694;BME280;69667;52.136;5.424;2023-05-07T03:55:38;101670.53;;;13.96;94.33
76694;BME280;69667;52.136;5.424;2023-05-07T03:58:05;101673.16;;;13.97;94.30
76694;BME280;69667;52.136;5.424;2023-05-07T04:00:31;101681.16;;;13.99;94.46
76694;BME280;69667;52.136;5.424;2023-05-07T04:03:13;101680.22;;;14.00;94.01
76694;BME280;69667;52.136;5.424;2023-05-07T04:05:40;101690.81;;;14.03;93.90
76694;BME280;69667;52.136;5.424;2023-05-07T04:08:07;101685.63;;;14.00;94.04
76694;BME280;69667;52.136;5.424;2023-05-07T04:10:44;101689.06;;;14.02;94.09
76694;BME280;69667;52.136;5.424;2023-05-07T04:13:12;101689.06;;;14.02;93.91
76694;BME280;69667;52.136;5.424;2023-05-07T04:15:39;101693.53;;;14.03;93.83
76694;BME280;69667;52.136;5.424;2023-05-07T04:18:08;101694.41;;;14.04;93.78
76694;BME280;69667;52.136;5.424;2023-05-07T04:20:36;101693.19;;;14.08;93.99
76694;BME280;69667;52.136;5.424;2023-05-07T04:23:07;101693.19;;;14.08;94.00
76694;BME280;69667;52.136;5.424;2023-05-07T04:25:34;101693.94;;;14.10;94.04
76694;BME280;69667;52.136;5.424;2023-05-07T04:28:07;101690.00;;;14.14;93.53
76694;BME280;69667;52.136;5.424;2023-05-07T04:30:34;101697.03;;;14.16;93.48
76694;BME280;69667;52.136;5.424;2023-05-07T04:33:03;101701.34;;;14.19;93.46
76694;BME280;69667;52.136;5.424;2023-05-07T04:35:30;101697.91;;;14.17;93.24
76694;BME280;69667;52.136;5.424;2023-05-07T04:37:58;101696.03;;;14.17;93.70
76694;BME280;69667;52.136;5.424;2023-05-07T04:40:24;101695.84;;;14.20;93.23
76694;BME280;69667;52.136;5.424;2023-05-07T04:42:51;101694.97;;;14.20;93.31
76694;BME280;69667;52.136;5.424;2023-05-07T04:45:20;101698.44;;;14.22;93.84
76694;BME280;69667;52.136;5.424;2023-05-07T04:47:46;101702.13;;;14.21;93.83
76694;BME280;69667;52.136;5.424;2023-05-07T04:50:13;101698.44;;;14.22;93.33
76694;BME280;69667;52.136;5.424;2023-05-07T04:52:41;101708.19;;;14.24;92.93
76694;BME280;69667;52.136;5.424;2023-05-07T04:55:08;101706.59;;;14.22;92.94
76694;BME280;69667;52.136;5.424;2023-05-07T04:57:37;101708.28;;;14.23;92.66
76694;BME280;69667;52.136;5.424;2023-05-07T05:00:08;101714.50;;;14.25;92.36
76694;BME280;69667;52.136;5.424;2023-05-07T05:02:37;101716.31;;;14.24;92.56
76694;BME280;69667;52.136;5.424;2023-05-07T05:05:04;101715.41;;;14.25;92.59
76694;BME280;69667;52.136;5.424;2023-05-07T05:07:31;101714.16;;;14.29;92.65
76694;BME280;69667;52.136;5.424;2023-05-07T05:09:59;101720.22;;;14.33;92.26
76694;BME280;69667;52.136;5.424;2023-05-07T05:12:25;101714.44;;;14.37;91.82
76694;BME280;69667;52.136;5.424;2023-05-07T05:14:52;101710.63;;;14.40;92.06
76694;BME280;69667;52.136;5.424;2023-05-07T05:17:20;101710.75;;;14.38;92.29
76694;BME280;69667;52.136;5.424;2023-05-07T05:19:46;101721.59;;;14.38;91.51
76694;BME280;69667;52.136;5.424;2023-05-07T05:22:13;101719.75;;;14.39;91.80
76694;BME280;69667;52.136;5.424;2023-05-07T05:24:39;101720.63;;;14.39;91.96
76694;BME280;69667;52.136;5.424;2023-05-07T05:27:06;101723.34;;;14.39;91.79
76694;BME280;69667;52.136;5.424;2023-05-07T05:29:33;101726.81;;;14.41;92.06
76694;BME280;69667;52.136;5.424;2023-05-07T05:32:01;101722.97;;;14.44;92.08
76694;BME280;69667;52.136;5.424;2023-05-07T05:34:29;101728.19;;;14.47;91.98
76694;BME280;69667;52.136;5.424;2023-05-07T05:36:58;101729.03;;;14.47;92.02
76694;BME280;69667;52.136;5.424;2023-05-07T05:39:25;101736.34;;;14.47;91.73
76694;BME280;69667;52.136;5.424;2023-05-07T05:41:54;101737.06;;;14.49;91.51
76694;BME280;69667;52.136;5.424;2023-05-07T05:44:20;101742.16;;;14.53;91.74
76694;BME280;69667;52.136;5.424;2023-05-07T05:46:47;101738.19;;;14.57;91.75
76694;BME280;69667;52.136;5.424;2023-05-07T05:49:16;101741.31;;;14.64;91.56
76694;BME280;69667;52.136;5.424;2023-05-07T05:51:42;101749.00;;;14.70;91.23
76694;BME280;69667;52.136;5.424;2023-05-07T05:54:09;101752.34;;;14.73;90.90
76694;BME280;69667;52.136;5.424;2023-05-07T05:56:36;101752.59;;;14.81;90.89
76694;BME280;69667;52.136;5.424;2023-05-07T05:59:03;101747.56;;;14.88;90.72
76694;BME280;69667;52.136;5.424;2023-05-07T06:01:32;101753.25;;;14.85;90.40
76694;BME280;69667;52.136;5.424;2023-05-07T06:04:00;101760.53;;;14.84;90.68
76694;BME280;69667;52.136;5.424;2023-05-07T06:06:28;101764.34;;;14.82;90.99
76694;BME280;69667;52.136;5.424;2023-05-07T06:08:55;101770.50;;;14.84;91.21
76694;BME280;69667;52.136;5.424;2023-05-07T06:11:28;101769.66;;;14.83;90.58
76694;BME280;69667;52.136;5.424;2023-05-07T06:13:56;101769.53;;;14.85;90.82
76694;BME280;69667;52.136;5.424;2023-05-07T06:16:24;101758.91;;;14.82;90.82
76694;BME280;69667;52.136;5.424;2023-05-07T06:18:54;101761.72;;;14.80;91.84
76694;BME280;69667;52.136;5.424;2023-05-07T06:21:23;101762.84;;;14.78;91.70
76694;BME280;69667;52.136;5.424;2023-05-07T06:23:50;101761.84;;;14.79;91.80
76694;BME280;69667;52.136;5.424;2023-05-07T06:26:18;101770.38;;;14.85;91.95
76694;BME280;69667;52.136;5.424;2023-05-07T06:28:46;101770.19;;;14.88;91.81
76694;BME280;69667;52.136;5.424;2023-05-07T06:31:15;101766.34;;;14.91;92.12
76694;BME280;69667;52.136;5.424;2023-05-07T06:33:57;101773.16;;;14.96;91.94
76694;BME280;69667;52.136;5.424;2023-05-07T06:36:29;101768.47;;;14.98;92.48
76694;BME280;69667;52.136;5.424;2023-05-07T06:38:57;101774.88;;;14.97;91.76
76694;BME280;69667;52.136;5.424;2023-05-07T06:41:24;101769.31;;;14.99;91.84
76694;BME280;69667;52.136;5.424;2023-05-07T06:43:50;101783.91;;;14.98;91.80
76694;BME280;69667;52.136;5.424;2023-05-07T06:46:43;101771.81;;;15.02;92.15
76694;BME280;69667;52.136;5.424;2023-05-07T06:49:12;101776.63;;;14.98;92.05
76694;BME280;69667;52.136;5.424;2023-05-07T06:51:39;101770.56;;;14.95;92.01
76694;BME280;69667;52.136;5.424;2023-05-07T06:54:06;101771.06;;;15.00;91.88
76694;BME280;69667;52.136;5.424;2023-05-07T06:56:35;101777.97;;;15.04;91.70
76694;BME280;69667;52.136;5.424;2023-05-07T06:59:03;101773.28;;;15.06;91.75
76694;BME280;69667;52.136;5.424;2023-05-07T07:01:35;101777.88;;;15.16;91.89
76694;BME280;69667;52.136;5.424;2023-05-07T07:04:03;101774.31;;;15.27;91.48
76694;BME280;69667;52.136;5.424;2023-05-07T07:06:30;101775.94;;;15.41;90.94
76694;BME280;69667;52.136;5.424;2023-05-07T07:09:00;101761.84;;;15.58;91.22
76694;BME280;69667;52.136;5.424;2023-05-07T07:11:30;101762.31;;;15.85;89.86
76694;BME280;69667;52.136;5.424;2023-05-07T07:13:57;101772.91;;;16.73;88.19
76694;BME280;69667;52.136;5.424;2023-05-07T07:16:25;101766.13;;;16.88;86.84
76694;BME280;69667;52.136;5.424;2023-05-07T07:18:51;101776.63;;;16.93;86.46
76694;BME280;69667;52.136;5.424;2023-05-07T07:21:19;101769.41;;;17.33;84.73
76694;BME280;69667;52.136;5.424;2023-05-07T07:23:46;101763.63;;;18.45;81.54
76694;BME280;69667;52.136;5.424;2023-05-07T07:26:12;101762.75;;;18.45;81.00
76694;BME280;69667;52.136;5.424;2023-05-07T07:28:43;101758.41;;;18.71;79.52
76694;BME280;69667;52.136;5.424;2023-05-07T07:31:12;101762.16;;;18.70;77.70
76694;BME280;69667;52.136;5.424;2023-05-07T07:33:41;101764.06;;;18.41;79.73
76694;BME280;69667;52.136;5.424;2023-05-07T07:36:08;101768.28;;;18.15;80.32
76694;BME280;69667;52.136;5.424;2023-05-07T07:38:34;101775.00;;;18.01;80.78
76694;BME280;69667;52.136;5.424;2023-05-07T07:41:02;101787.41;;;18.05;80.48
76694;BME280;69667;52.136;5.424;2023-05-07T07:43:29;101771.03;;;18.15;80.54
76694;BME280;69667;52.136;5.424;2023-05-07T07:45:56;101774.78;;;18.14;79.13
76694;BME280;69667;52.136;5.424;2023-05-07T07:48:23;101780.38;;;18.22;79.15
76694;BME280;69667;52.136;5.424;2023-05-07T07:50:50;101782.44;;;18.58;79.24
76694;BME280;69667;52.136;5.424;2023-05-07T07:53:18;101787.16;;;19.23;76.13
76694;BME280;69667;52.136;5.424;2023-05-07T07:55:47;101785.72;;;19.65;74.19
76694;BME280;69667;52.136;5.424;2023-05-07T07:58:17;101787.50;;;19.83;73.74
76694;BME280;69667;52.136;5.424;2023-05-07T08:00:44;101779.09;;;19.67;74.19
76694;BME280;69667;52.136;5.424;2023-05-07T08:03:12;101786.97;;;19.43;75.52
76694;BME280;69667;52.136;5.424;2023-05-07T08:05:43;101790.53;;;19.53;75.51
76694;BME280;69667;52.136;5.424;2023-05-07T08:08:09;101792.31;;;19.26;74.82
76694;BME280;69667;52.136;5.424;2023-05-07T08:10:38;101792.41;;;18.87;75.25
76694;BME280;69667;52.136;5.424;2023-05-07T08:13:12;101789.66;;;18.49;76.87
76694;BME280;69667;52.136;5.424;2023-05-07T08:15:40;101784.13;;;18.21;77.23
76694;BME280;69667;52.136;5.424;2023-05-07T08:18:07;101792.28;;;18.11;78.25
76694;BME280;69667;52.136;5.424;2023-05-07T08:20:35;101803.94;;;18.04;77.74
76694;BME280;69667;52.136;5.424;2023-05-07T08:23:07;101805.94;;;17.92;80.42
76694;BME280;69667;52.136;5.424;2023-05-07T08:25:34;101801.13;;;17.75;81.26
76694;BME280;69667;52.136;5.424;2023-05-07T08:28:01;101807.81;;;17.61;82.16
76694;BME280;69667;52.136;5.424;2023-05-07T08:30:30;101800.84;;;17.48;83.39
76694;BME280;69667;52.136;5.424;2023-05-07T08:33:16;101798.03;;;17.38;85.02
76694;BME280;69667;52.136;5.424;2023-05-07T08:35:53;101799.44;;;17.33;83.95
76694;BME280;69667;52.136;5.424;2023-05-07T08:38:57;101804.25;;;17.20;84.94
76694;BME280;69667;52.136;5.424;2023-05-07T08:41:24;101808.84;;;17.19;84.81
76694;BME280;69667;52.136;5.424;2023-05-07T08:47:13;101807.84;;;17.20;85.78
76694;BME280;69667;52.136;5.424;2023-05-07T08:50:05;101807.13;;;17.18;85.49
76694;BME280;69667;52.136;5.424;2023-05-07T08:53:20;101809.06;;;17.27;85.99
76694;BME280;69667;52.136;5.424;2023-05-07T08:55:48;101809.84;;;17.39;86.08
76694;BME280;69667;52.136;5.424;2023-05-07T08:58:20;101804.59;;;17.47;85.38
76694;BME280;69667;52.136;5.424;2023-05-07T09:01:16;101808.16;;;17.47;85.17
76694;BME280;69667;52.136;5.424;2023-05-07T09:03:46;101810.69;;;17.39;85.55
76694;BME280;69667;52.136;5.424;2023-05-07T09:06:14;101813.53;;;17.38;86.22
76694;BME280;69667;52.136;5.424;2023-05-07T09:08:48;101807.75;;;17.31;86.62
76694;BME280;69667;52.136;5.424;2023-05-07T09:11:16;101806.19;;;17.29;86.92
76694;BME280;69667;52.136;5.424;2023-05-07T09:13:45;101804.94;;;17.12;85.87
76694;BME280;69667;52.136;5.424;2023-05-07T09:16:20;101796.66;;;17.03;86.75
76694;BME280;69667;52.136;5.424;2023-05-07T09:18:54;101809.78;;;17.09;88.62
76694;BME280;69667;52.136;5.424;2023-05-07T09:21:22;101801.53;;;17.20;88.12
76694;BME280;69667;52.136;5.424;2023-05-07T09:23:53;101805.31;;;17.28;87.52
76694;BME280;69667;52.136;5.424;2023-05-07T09:26:23;101811.63;;;17.29;86.61
76694;BME280;69667;52.136;5.424;2023-05-07T09:28:52;101803.97;;;17.23;85.68
76694;BME280;69667;52.136;5.424;2023-05-07T09:31:20;101811.78;;;17.27;86.69
76694;BME280;69667;52.136;5.424;2023-05-07T09:33:50;101808.09;;;17.38;87.36
76694;BME280;69667;52.136;5.424;2023-05-07T09:36:18;101809.28;;;17.45;86.62
76694;BME280;69667;52.136;5.424;2023-05-07T09:38:45;101808.91;;;17.49;86.24
76694;BME280;69667;52.136;5.424;2023-05-07T09:41:12;101809.91;;;17.48;86.64
76694;BME280;69667;52.136;5.424;2023-05-07T09:43:59;101813.97;;;17.54;86.32
76694;BME280;69667;52.136;5.424;2023-05-07T09:46:38;101814.22;;;17.51;85.49
76694;BME280;69667;52.136;5.424;2023-05-07T09:49:22;101809.63;;;17.51;85.76
76694;BME280;69667;52.136;5.424;2023-05-07T09:51:52;101815.38;;;17.48;84.86
76694;BME280;69667;52.136;5.424;2023-05-07T09:54:22;101814.50;;;17.48;84.99
76694;BME280;69667;52.136;5.424;2023-05-07T09:56:52;101817.28;;;17.37;85.14
76694;BME280;69667;52.136;5.424;2023-05-07T09:59:22;101822.47;;;17.40;85.61
76694;BME280;69667;52.136;5.424;2023-05-07T10:01:52;101823.47;;;17.39;84.39
76694;BME280;69667;52.136;5.424;2023-05-07T10:04:20;101817.22;;;17.48;84.20
76694;BME280;69667;52.136;5.424;2023-05-07T10:06:47;101825.59;;;17.56;85.14
76694;BME280;69667;52.136;5.424;2023-05-07T10:09:15;101829.09;;;17.67;84.62
76694;BME280;69667;52.136;5.424;2023-05-07T10:11:43;101829.63;;;17.92;83.97
76694;BME280;69667;52.136;5.424;2023-05-07T10:14:10;101829.97;;;18.08;83.63
76694;BME280;69667;52.136;5.424;2023-05-07T10:16:41;101829.13;;;18.17;82.30
76694;BME280;69667;52.136;5.424;2023-05-07T10:19:16;101823.69;;;18.26;80.88
76694;BME280;69667;52.136;5.424;2023-05-07T10:21:56;101824.91;;;18.43;80.83
76694;BME280;69667;52.136;5.424;2023-05-07T10:24:29;101826.19;;;18.39;81.14
76694;BME280;69667;52.136;5.424;2023-05-07T10:27:00;101826.22;;;18.58;81.63
76694;BME280;69667;52.136;5.424;2023-05-07T10:29:45;101826.06;;;18.88;81.62
76694;BME280;69667;52.136;5.424;2023-05-07T10:34:55;101821.41;;;19.46;80.26
76694;BME280;69667;52.136;5.424;2023-05-07T10:37:23;101824.53;;;19.60;77.87
76694;BME280;69667;52.136;5.424;2023-05-07T10:39:51;101817.81;;;19.82;76.92
76694;BME280;69667;52.136;5.424;2023-05-07T10:42:19;101819.22;;;20.23;76.91
76694;BME280;69667;52.136;5.424;2023-05-07T10:44:50;101813.22;;;20.54;75.22
76694;BME280;69667;52.136;5.424;2023-05-07T10:47:23;101818.56;;;20.91;72.78
76694;BME280;69667;52.136;5.424;2023-05-07T10:52:26;101817.28;;;21.20;71.73
76694;BME280;69667;52.136;5.424;2023-05-07T10:58:32;101819.28;;;21.87;68.74
76694;BME280;69667;52.136;5.424;2023-05-07T11:01:58;101819.41;;;21.78;67.30
76694;BME280;69667;52.136;5.424;2023-05-07T11:05:28;101820.00;;;21.72;68.15
76694;BME280;69667;52.136;5.424;2023-05-07T11:08:15;101817.88;;;21.58;66.66
76694;BME280;69667;52.136;5.424;2023-05-07T11:10:59;101818.59;;;21.60;68.13
76694;BME280;69667;52.136;5.424;2023-05-07T11:13:49;101818.22;;;21.55;67.74
76694;BME280;69667;52.136;5.424;2023-05-07T11:16:37;101819.38;;;21.52;69.65
76694;BME280;69667;52.136;5.424;2023-05-07T11:19:16;101825.25;;;21.57;68.94
76694;BME280;69667;52.136;5.424;2023-05-07T11:21:47;101820.81;;;21.56;70.52
76694;BME280;69667;52.136;5.424;2023-05-07T11:24:42;101822.84;;;21.54;69.67
76694;BME280;69667;52.136;5.424;2023-05-07T11:27:11;101820.59;;;21.50;68.20
76694;BME280;69667;52.136;5.424;2023-05-07T11:29:46;101835.38;;;21.57;70.66
76694;BME280;69667;52.136;5.424;2023-05-07T11:32:13;101833.00;;;21.79;68.44
76694;BME280;69667;52.136;5.424;2023-05-07T11:34:51;101836.66;;;21.88;67.55
76694;BME280;69667;52.136;5.424;2023-05-07T11:37:22;101832.97;;;22.13;69.07
76694;BME280;69667;52.136;5.424;2023-05-07T11:40:08;101828.75;;;22.26;67.59
76694;BME280;69667;52.136;5.424;2023-05-07T11:42:40;101816.06;;;22.41;66.51
76694;BME280;69667;52.136;5.424;2023-05-07T11:45:09;101821.44;;;22.59;66.61
76694;BME280;69667;52.136;5.424;2023-05-07T11:47:37;101815.25;;;22.57;65.89
76694;BME280;69667;52.136;5.424;2023-05-07T11:50:07;101814.41;;;22.73;65.34
76694;BME280;69667;52.136;5.424;2023-05-07T11:52:35;101816.47;;;22.63;66.18
76694;BME280;69667;52.136;5.424;2023-05-07T11:55:04;101823.25;;;22.34;67.22
76694;BME280;69667;52.136;5.424;2023-05-07T11:57:32;101816.91;;;22.42;67.09
76694;BME280;69667;52.136;5.424;2023-05-07T12:00:00;101822.38;;;22.34;65.92
76694;BME280;69667;52.136;5.424;2023-05-07T12:02:37;101819.09;;;22.22;67.30
76694;BME280;69667;52.136;5.424;2023-05-07T12:05:05;101815.88;;;22.43;67.83
76694;BME280;69667;52.136;5.424;2023-05-07T12:07:33;101824.25;;;22.25;65.83
76694;BME280;69667;52.136;5.424;2023-05-07T12:10:04;101817.78;;;22.42;66.30
76694;BME280;69667;52.136;5.424;2023-05-07T12:12:31;101820.75;;;22.65;67.45
76694;BME280;69667;52.136;5.424;2023-05-07T12:15:04;101826.31;;;22.81;64.99
76694;BME280;69667;52.136;5.424;2023-05-07T12:17:31;101830.44;;;22.85;64.21
76694;BME280;69667;52.136;5.424;2023-05-07T12:19:57;101823.72;;;23.04;64.42
76694;BME280;69667;52.136;5.424;2023-05-07T12:22:24;101823.38;;;23.47;61.66
76694;BME280;69667;52.136;5.424;2023-05-07T12:24:58;101820.72;;;23.77;64.08
76694;BME280;69667;52.136;5.424;2023-05-07T12:27:25;101813.72;;;24.14;60.41
76694;BME280;69667;52.136;5.424;2023-05-07T12:29:52;101820.69;;;24.32;62.52
76694;BME280;69667;52.136;5.424;2023-05-07T12:32:21;101814.31;;;24.01;61.11
76694;BME280;69667;52.136;5.424;2023-05-07T12:34:51;101821.00;;;24.07;60.64
76694;BME280;69667;52.136;5.424;2023-05-07T12:37:24;101809.16;;;23.82;60.01
76694;BME280;69667;52.136;5.424;2023-05-07T12:40:12;101813.56;;;23.44;61.42
76694;BME280;69667;52.136;5.424;2023-05-07T12:42:40;101818.03;;;23.45;63.17
76694;BME280;69667;52.136;5.424;2023-05-07T12:45:25;101812.16;;;23.64;60.90
76694;BME280;69667;52.136;5.424;2023-05-07T12:47:55;101810.56;;;23.78;60.51
76694;BME280;69667;52.136;5.424;2023-05-07T12:50:22;101813.78;;;24.36;59.23
76694;BME280;69667;52.136;5.424;2023-05-07T12:52:54;101815.41;;;24.53;59.39
76694;BME280;69667;52.136;5.424;2023-05-07T12:55:21;101822.00;;;24.14;56.56
76694;BME280;69667;52.136;5.424;2023-05-07T12:57:49;101830.75;;;23.70;55.90
76694;BME280;69667;52.136;5.424;2023-05-07T13:00:17;101823.06;;;23.34;56.96
76694;BME280;69667;52.136;5.424;2023-05-07T13:02:47;101828.41;;;23.27;57.99
76694;BME280;69667;52.136;5.424;2023-05-07T13:05:20;101832.03;;;23.28;59.44
76694;BME280;69667;52.136;5.424;2023-05-07T13:07:56;101822.84;;;23.59;58.93
76694;BME280;69667;52.136;5.424;2023-05-07T13:10:24;101824.69;;;23.83;58.01
76694;BME280;69667;52.136;5.424;2023-05-07T13:12:51;101821.03;;;23.91;54.37
76694;BME280;69667;52.136;5.424;2023-05-07T13:15:21;101822.91;;;23.90;55.19
76694;BME280;69667;52.136;5.424;2023-05-07T13:17:50;101827.38;;;24.07;57.59